createdAt,value
2017-07-04T00:01:03.423Z,21.90
2017-07-04T00:03:29.493Z,21.80
2017-07-04T00:05:55.539Z,21.90
2017-07-04T00:08:21.586Z,21.80
2017-07-04T00:10:47.646Z,21.70
2017-07-04T00:13:13.710Z,21.70
2017-07-04T00:15:39.778Z,21.70
2017-07-04T00:18:05.818Z,21.70
2017-07-04T00:20:31.859Z,21.70
2017-07-04T00:22:57.925Z,21.70
2017-07-04T00:25:23.966Z,21.70
2017-07-04T00:27:50.017Z,21.70
2017-07-04T00:30:16.803Z,21.60
2017-07-04T00:32:42.926Z,21.60
2017-07-04T00:35:08.971Z,21.60
2017-07-04T00:37:35.013Z,21.70
2017-07-04T00:40:01.041Z,21.60
2017-07-04T00:42:27.094Z,21.60
2017-07-04T00:44:53.882Z,21.50
2017-07-04T00:47:19.923Z,21.50
2017-07-04T00:50:01.705Z,21.50
2017-07-04T00:52:27.762Z,21.50
2017-07-04T00:54:53.820Z,21.50
2017-07-04T00:57:19.887Z,21.50
2017-07-04T00:59:45.943Z,21.50
2017-07-04T01:02:11.994Z,21.50
2017-07-04T01:04:38.785Z,21.50
2017-07-04T01:07:04.817Z,21.40
2017-07-04T01:09:30.870Z,21.50
2017-07-04T01:11:56.924Z,21.40
2017-07-04T01:14:22.977Z,21.40
2017-07-04T01:38:10.488Z,21.30
2017-07-04T01:40:36.522Z,21.30
2017-07-04T01:43:02.573Z,21.30
2017-07-04T01:45:29.354Z,21.30
2017-07-04T01:47:55.396Z,21.30
2017-07-04T01:50:21.437Z,21.30
2017-07-04T01:52:47.494Z,21.30
2017-07-04T01:55:13.560Z,21.30
2017-07-04T01:57:39.599Z,21.30
2017-07-04T02:00:05.647Z,21.30
2017-07-04T02:02:31.698Z,21.30
2017-07-04T02:04:57.751Z,21.20
2017-07-04T02:07:23.786Z,21.20
2017-07-04T02:09:49.823Z,21.30
2017-07-04T02:12:15.875Z,21.30
2017-07-04T02:14:41.914Z,21.30
2017-07-04T02:17:07.957Z,21.20
2017-07-04T02:19:34.746Z,21.30
2017-07-04T02:22:00.793Z,21.30
2017-07-04T02:24:26.841Z,21.30
2017-07-04T02:26:52.890Z,21.20
2017-07-04T02:29:18.967Z,21.10
2017-07-04T02:31:45.010Z,21.20
2017-07-04T02:34:11.053Z,21.20
2017-07-04T02:36:37.106Z,21.10
2017-07-04T02:39:03.223Z,21.10
2017-07-04T02:41:44.264Z,21.00
2017-07-04T02:44:10.309Z,21.10
2017-07-04T02:46:36.362Z,21.10
2017-07-04T02:49:02.410Z,21.10
2017-07-04T02:51:28.473Z,21.00
2017-07-04T02:53:54.538Z,21.10
2017-07-04T02:56:20.594Z,21.00
2017-07-04T02:58:46.632Z,21.00
2017-07-04T03:01:12.690Z,21.00
2017-07-04T03:03:38.743Z,20.90
2017-07-04T03:06:04.786Z,20.90
2017-07-04T03:08:30.834Z,20.90
2017-07-04T03:10:56.887Z,21.00
2017-07-04T03:13:22.950Z,21.00
2017-07-04T03:15:49.014Z,21.00
2017-07-04T03:18:15.047Z,21.10
2017-07-04T03:20:41.078Z,21.10
2017-07-04T03:23:07.110Z,21.00
2017-07-04T03:25:33.150Z,21.00
2017-07-04T03:27:59.198Z,21.00
2017-07-04T03:30:25.230Z,20.90
2017-07-04T03:32:51.275Z,20.90
2017-07-04T03:35:17.314Z,20.90
2017-07-04T03:37:43.361Z,20.90
2017-07-04T03:40:10.151Z,20.80
2017-07-04T03:42:36.195Z,20.80
2017-07-04T03:45:02.231Z,20.80
2017-07-04T03:47:29.142Z,20.80
2017-07-04T03:49:55.183Z,20.80
2017-07-04T03:52:21.218Z,20.90
2017-07-04T03:54:47.263Z,20.90
2017-07-04T03:57:14.058Z,20.90
2017-07-04T03:59:40.103Z,20.80
2017-07-04T04:02:06.131Z,20.80
2017-07-04T04:04:32.170Z,20.80
2017-07-04T04:06:58.213Z,20.80
2017-07-04T04:09:24.259Z,20.80
2017-07-04T04:11:50.288Z,20.80
2017-07-04T04:14:17.059Z,20.80
2017-07-04T04:16:43.133Z,20.80
2017-07-04T04:19:09.186Z,20.70
2017-07-04T04:21:35.233Z,20.70
2017-07-04T04:24:01.278Z,20.70
2017-07-04T04:26:27.338Z,20.70
2017-07-04T04:28:53.391Z,20.70
2017-07-04T04:31:19.446Z,20.70
2017-07-04T04:33:45.486Z,20.80
2017-07-04T04:36:11.530Z,20.80
2017-07-04T04:38:37.578Z,20.90
2017-07-04T04:41:04.377Z,20.90
2017-07-04T04:43:30.420Z,20.90
2017-07-04T04:45:56.466Z,20.90
2017-07-04T04:48:22.506Z,20.90
2017-07-04T04:50:49.304Z,20.90
2017-07-04T04:53:15.348Z,20.90
2017-07-04T04:55:41.390Z,20.90
2017-07-04T04:58:07.508Z,20.90
2017-07-04T05:00:33.555Z,20.80
2017-07-04T05:02:59.619Z,20.80
2017-07-04T05:05:25.656Z,20.80
2017-07-04T05:07:51.698Z,20.80
2017-07-04T05:10:17.737Z,20.80
2017-07-04T05:12:43.786Z,20.80
2017-07-04T05:15:09.838Z,20.90
2017-07-04T05:17:35.888Z,20.90
2017-07-04T05:20:01.946Z,20.90
2017-07-04T05:22:27.998Z,20.90
2017-07-04T05:24:54.042Z,20.90
2017-07-04T05:27:20.086Z,20.90
2017-07-04T05:29:46.123Z,20.90
2017-07-04T05:32:12.175Z,21.00
2017-07-04T05:34:38.995Z,21.00
2017-07-04T05:37:05.043Z,20.90
2017-07-04T05:39:31.098Z,21.00
2017-07-04T05:41:57.182Z,21.00
2017-07-04T05:44:23.232Z,21.00
2017-07-04T05:46:49.318Z,20.90
2017-07-04T05:49:15.395Z,21.00
2017-07-04T05:51:41.447Z,21.00
2017-07-04T05:54:07.500Z,20.90
2017-07-04T05:56:33.567Z,20.90
2017-07-04T05:59:00.358Z,21.00
2017-07-04T06:01:26.440Z,21.00
2017-07-04T06:03:52.532Z,21.00
2017-07-04T06:06:18.633Z,21.00
2017-07-04T06:08:44.774Z,21.10
2017-07-04T06:11:10.843Z,21.10
2017-07-04T06:13:36.976Z,21.10
2017-07-04T06:16:03.300Z,21.10
2017-07-04T06:18:29.455Z,21.10
2017-07-04T06:20:55.506Z,21.10
2017-07-04T06:23:21.553Z,21.10
2017-07-04T06:25:47.617Z,21.10
2017-07-04T06:28:13.670Z,21.10
2017-07-04T06:30:39.722Z,21.10
2017-07-04T06:33:05.773Z,21.10
2017-07-04T06:35:31.843Z,21.20
2017-07-04T06:37:57.898Z,21.20
2017-07-04T06:40:23.962Z,21.20
2017-07-04T06:42:50.031Z,21.10
2017-07-04T06:45:16.091Z,21.10
2017-07-04T06:47:42.138Z,21.20
2017-07-04T06:50:08.219Z,21.20
2017-07-04T06:52:34.272Z,21.20
2017-07-04T06:55:00.333Z,21.20
2017-07-04T06:57:26.383Z,21.30
2017-07-04T06:59:52.451Z,21.30
2017-07-04T07:02:18.534Z,21.30
2017-07-04T07:04:44.672Z,21.30
2017-07-04T07:07:10.722Z,21.30
2017-07-04T07:09:36.799Z,21.30
2017-07-04T07:12:02.878Z,21.30
2017-07-04T07:14:28.953Z,21.30
2017-07-04T07:16:55.010Z,21.30
2017-07-04T07:19:21.150Z,21.30
2017-07-04T07:21:47.198Z,21.30
2017-07-04T07:24:13.239Z,21.30
2017-07-04T07:26:39.605Z,21.30
2017-07-04T07:29:05.675Z,21.40
2017-07-04T07:31:31.731Z,21.40
2017-07-04T07:33:57.782Z,21.40
2017-07-04T07:36:23.846Z,21.40
2017-07-04T07:39:21.051Z,21.40
2017-07-04T07:41:47.176Z,21.40
2017-07-04T07:44:13.233Z,21.40
2017-07-04T07:46:39.602Z,21.40
2017-07-04T07:49:05.637Z,21.40
2017-07-04T07:51:32.449Z,21.50
2017-07-04T07:53:58.738Z,21.50
2017-07-04T07:56:24.898Z,21.50
2017-07-04T07:58:50.960Z,21.50
2017-07-04T08:01:17.023Z,21.60
2017-07-04T08:03:43.203Z,21.60
2017-07-04T08:06:09.299Z,21.60
2017-07-04T08:08:35.947Z,21.60
2017-07-04T08:11:02.010Z,21.70
2017-07-04T08:13:28.801Z,21.70
2017-07-04T08:15:54.878Z,21.70
2017-07-04T08:21:01.591Z,21.80
2017-07-04T08:23:27.730Z,21.80
2017-07-04T08:25:53.813Z,21.80
2017-07-04T08:28:19.990Z,21.80
2017-07-04T08:30:46.136Z,21.90
2017-07-04T08:33:12.254Z,21.90
2017-07-04T08:35:38.325Z,21.90
2017-07-04T08:38:04.385Z,22.00
2017-07-04T08:40:30.559Z,21.90
2017-07-04T08:42:57.386Z,22.00
2017-07-04T08:45:23.439Z,22.00
2017-07-04T08:47:49.501Z,22.00
2017-07-04T08:50:15.575Z,22.00
2017-07-04T08:52:41.902Z,22.00
2017-07-04T08:55:07.969Z,22.00
2017-07-04T08:57:34.774Z,22.10
2017-07-04T09:00:00.838Z,22.00
2017-07-04T09:02:26.918Z,22.10
2017-07-04T09:04:53.062Z,22.10
2017-07-04T09:07:19.115Z,22.10
2017-07-04T09:09:45.188Z,22.10
2017-07-04T09:12:11.270Z,22.10
2017-07-04T09:14:37.346Z,22.10
2017-07-04T09:17:03.390Z,22.20
2017-07-04T09:19:29.498Z,22.20
2017-07-04T09:22:10.538Z,22.20
2017-07-04T09:24:36.652Z,22.20
2017-07-04T09:27:02.708Z,22.30
2017-07-04T09:29:28.859Z,22.30
2017-07-04T09:31:54.965Z,22.30
2017-07-04T09:34:21.041Z,22.30
2017-07-04T09:36:47.258Z,22.30
2017-07-04T09:39:13.299Z,22.40
2017-07-04T09:41:39.344Z,22.40
2017-07-04T09:44:05.397Z,22.40
2017-07-04T09:46:31.435Z,22.40
2017-07-04T09:48:57.475Z,22.40
2017-07-04T09:51:23.554Z,22.40
2017-07-04T09:53:50.338Z,22.40
2017-07-04T09:56:16.390Z,22.40
2017-07-04T09:58:42.733Z,22.50
2017-07-04T10:01:08.798Z,22.50
2017-07-04T10:03:34.859Z,22.50
2017-07-04T10:06:00.970Z,22.60
2017-07-04T10:08:27.109Z,22.60
2017-07-04T10:10:53.211Z,22.50
2017-07-04T10:13:19.297Z,22.50
2017-07-04T10:15:45.368Z,22.50
2017-07-04T10:18:12.017Z,22.50
2017-07-04T10:20:38.210Z,22.60
2017-07-04T10:23:04.314Z,22.60
2017-07-04T10:25:30.367Z,22.60
2017-07-04T10:27:56.481Z,22.60
2017-07-04T10:30:22.567Z,22.60
2017-07-04T10:32:48.647Z,22.60
2017-07-04T10:35:14.782Z,22.70
2017-07-04T10:37:40.896Z,22.70
2017-07-04T10:40:06.947Z,22.70
2017-07-04T10:42:33.408Z,22.70
2017-07-04T10:44:59.476Z,22.70
2017-07-04T10:47:25.536Z,22.70
2017-07-04T10:49:51.723Z,22.80
2017-07-04T10:52:17.795Z,22.80
2017-07-04T10:54:43.855Z,22.80
2017-07-04T10:57:09.910Z,22.80
2017-07-04T10:59:36.007Z,22.90
2017-07-04T11:02:02.071Z,22.90
2017-07-04T11:04:28.146Z,23.00
2017-07-04T11:06:54.222Z,23.00
2017-07-04T11:09:21.035Z,23.00
2017-07-04T11:11:47.109Z,23.00
2017-07-04T11:14:13.242Z,23.00
2017-07-04T11:16:39.414Z,23.00
2017-07-04T11:19:05.517Z,23.00
2017-07-04T11:21:31.619Z,23.00
2017-07-04T11:23:57.672Z,23.00
2017-07-04T11:26:23.916Z,23.10
2017-07-04T11:28:50.043Z,23.10
2017-07-04T11:31:16.162Z,23.10
2017-07-04T11:33:42.230Z,23.10
2017-07-04T11:36:08.287Z,23.10
2017-07-04T11:38:34.358Z,23.20
2017-07-04T11:41:00.406Z,23.20
2017-07-04T11:43:26.461Z,23.20
2017-07-04T11:45:52.615Z,23.20
2017-07-04T11:48:18.829Z,23.30
2017-07-04T11:50:44.886Z,23.30
2017-07-04T11:53:10.971Z,23.30
2017-07-04T11:55:37.065Z,23.30
2017-07-04T11:58:03.109Z,23.30
2017-07-04T12:00:29.172Z,23.30
2017-07-04T12:02:55.237Z,23.30
2017-07-04T12:05:21.268Z,23.30
2017-07-04T12:07:48.237Z,23.40
2017-07-04T12:10:14.544Z,23.40
2017-07-04T12:12:55.566Z,23.40
2017-07-04T12:15:21.618Z,23.50
2017-07-04T12:17:47.671Z,23.50
2017-07-04T12:20:13.727Z,23.50
2017-07-04T12:22:40.529Z,23.60
2017-07-04T12:25:06.618Z,23.50
2017-07-04T12:27:32.658Z,23.60
2017-07-04T12:29:58.774Z,23.60
2017-07-04T12:32:25.756Z,23.60
2017-07-04T12:34:51.811Z,23.60
2017-07-04T12:37:17.962Z,23.70
2017-07-04T12:39:44.749Z,23.70
2017-07-04T12:42:10.867Z,23.70
2017-07-04T12:44:36.926Z,23.90
2017-07-04T12:47:03.041Z,24.00
2017-07-04T12:49:29.094Z,24.10
2017-07-04T12:51:55.910Z,24.20
2017-07-04T12:54:22.053Z,24.20
2017-07-04T12:56:48.117Z,24.30
2017-07-04T12:59:14.187Z,24.40
2017-07-04T13:01:40.274Z,24.60
2017-07-04T13:04:06.377Z,24.50
2017-07-04T13:06:32.446Z,24.50
2017-07-04T13:08:58.499Z,24.50
2017-07-04T13:11:31.513Z,24.70
2017-07-04T13:13:57.589Z,24.80
2017-07-04T13:16:23.923Z,25.00
2017-07-04T13:18:50.038Z,25.20
2017-07-04T13:21:16.104Z,25.20
2017-07-04T13:23:57.185Z,25.20
2017-07-04T13:26:23.308Z,25.50
2017-07-04T13:28:49.447Z,25.70
2017-07-04T13:31:15.563Z,25.80
2017-07-04T13:33:41.888Z,26.00
2017-07-04T13:36:07.970Z,26.10
2017-07-04T13:38:34.199Z,26.20
2017-07-04T13:41:00.334Z,26.20
2017-07-04T13:43:26.431Z,26.40
2017-07-04T13:45:53.277Z,26.20
2017-07-04T13:48:19.399Z,26.20
2017-07-04T13:50:45.451Z,26.30
2017-07-04T13:53:11.534Z,26.30
2017-07-04T13:55:37.597Z,26.30
2017-07-04T13:58:03.677Z,26.30
2017-07-04T14:00:29.940Z,26.40
2017-07-04T14:02:56.018Z,26.40
2017-07-04T14:05:22.099Z,26.50
2017-07-04T14:07:48.198Z,26.50
2017-07-04T14:10:14.263Z,26.50
2017-07-04T14:12:40.343Z,26.50
2017-07-04T14:15:06.415Z,26.60
2017-07-04T14:17:32.479Z,26.70
2017-07-04T14:19:58.551Z,26.70
2017-07-04T14:22:24.826Z,26.80
2017-07-04T14:24:50.886Z,26.90
2017-07-04T14:27:16.936Z,26.90
2017-07-04T14:29:45.532Z,26.90
2017-07-04T14:32:12.018Z,26.90
2017-07-04T14:34:38.322Z,26.80
2017-07-04T14:37:04.479Z,26.60
2017-07-04T14:39:30.555Z,26.70
2017-07-04T14:41:56.655Z,26.80
2017-07-04T14:44:22.997Z,26.90
2017-07-04T14:46:49.363Z,27.00
2017-07-04T14:49:15.442Z,27.10
2017-07-04T14:51:41.512Z,27.00
2017-07-04T14:54:07.580Z,26.90
2017-07-04T14:56:33.631Z,27.10
2017-07-04T14:58:59.680Z,27.10
2017-07-04T15:01:25.784Z,27.20
2017-07-04T15:03:52.618Z,27.10
2017-07-04T15:06:18.830Z,27.10
2017-07-04T15:08:44.883Z,27.10
2017-07-04T15:11:10.950Z,27.10
2017-07-04T15:13:37.019Z,27.20
2017-07-04T15:16:03.083Z,27.10
2017-07-04T15:18:29.207Z,27.10
2017-07-04T15:20:55.254Z,27.10
2017-07-04T15:23:21.308Z,27.10
2017-07-04T15:25:47.339Z,27.20
2017-07-04T15:28:13.598Z,27.30
2017-07-04T15:30:39.666Z,27.30
2017-07-04T15:33:05.735Z,27.40
2017-07-04T15:35:31.781Z,27.50
2017-07-04T15:37:57.847Z,27.50
2017-07-04T15:40:23.897Z,27.50
2017-07-04T15:42:49.934Z,27.50
2017-07-04T15:45:15.976Z,27.30
2017-07-04T15:47:42.047Z,27.00
2017-07-04T15:50:08.122Z,26.90
2017-07-04T15:52:34.225Z,26.90
2017-07-04T15:55:00.256Z,26.70
2017-07-04T15:57:26.299Z,26.60
2017-07-04T15:59:52.402Z,26.60
2017-07-04T16:02:18.450Z,26.60
2017-07-04T16:04:44.523Z,26.50
2017-07-04T16:07:10.619Z,26.40
2017-07-04T16:09:37.428Z,26.40
2017-07-04T16:12:03.554Z,26.40
2017-07-04T16:14:29.622Z,26.40
2017-07-04T16:16:55.673Z,26.40
2017-07-04T16:19:21.984Z,26.30
2017-07-04T16:21:48.039Z,26.20
2017-07-04T16:24:14.087Z,26.20
2017-07-04T16:26:40.151Z,26.20
2017-07-04T16:29:06.196Z,26.20
2017-07-04T16:31:32.254Z,26.10
2017-07-04T16:33:58.389Z,26.10
2017-07-04T16:36:24.477Z,26.00
2017-07-04T16:38:51.275Z,25.90
2017-07-04T16:41:17.341Z,25.90
2017-07-04T16:43:43.399Z,25.90
2017-07-04T16:46:09.473Z,25.90
2017-07-04T16:48:35.607Z,25.90
2017-07-04T16:51:01.629Z,25.80
2017-07-04T16:53:27.694Z,25.80
2017-07-04T16:55:53.877Z,25.70
2017-07-04T16:58:19.938Z,25.60
2017-07-04T17:00:46.028Z,25.60
2017-07-04T17:03:12.079Z,25.60
2017-07-04T17:05:38.874Z,25.50
2017-07-04T17:08:04.958Z,25.50
2017-07-04T17:10:31.027Z,25.50
2017-07-04T17:12:57.114Z,25.40
2017-07-04T17:15:23.147Z,25.40
2017-07-04T17:17:49.291Z,25.40
2017-07-04T17:20:15.348Z,25.40
2017-07-04T17:22:41.417Z,25.30
2017-07-04T17:25:07.470Z,25.30
2017-07-04T17:27:33.510Z,25.30
2017-07-04T17:29:59.548Z,25.30
2017-07-04T17:32:25.591Z,25.20
2017-07-04T17:34:51.635Z,25.20
2017-07-04T17:37:17.726Z,25.10
2017-07-04T17:39:43.830Z,25.10
2017-07-04T17:42:09.859Z,25.10
2017-07-04T17:44:35.899Z,25.10
2017-07-04T17:47:01.969Z,25.00
2017-07-04T17:49:28.033Z,25.00
2017-07-04T17:51:54.070Z,25.00
2017-07-04T17:54:20.105Z,25.00
2017-07-04T17:56:46.160Z,24.90
2017-07-04T17:59:12.239Z,24.90
2017-07-04T18:01:39.092Z,24.90
2017-07-04T18:04:05.130Z,24.90
2017-07-04T18:06:31.178Z,24.90
2017-07-04T18:08:57.221Z,24.90
2017-07-04T18:11:24.014Z,24.80
2017-07-04T18:13:50.055Z,24.80
2017-07-04T18:16:16.099Z,24.80
2017-07-04T18:18:42.151Z,24.80
2017-07-04T18:21:08.971Z,24.70
2017-07-04T18:23:35.074Z,24.70
2017-07-04T18:26:01.117Z,24.70
2017-07-04T18:28:27.158Z,24.70
2017-07-04T18:30:53.210Z,24.70
2017-07-04T18:33:19.282Z,24.70
2017-07-04T18:35:45.336Z,24.70
2017-07-04T18:38:11.395Z,24.70
2017-07-04T18:40:38.120Z,24.60
2017-07-04T18:43:04.165Z,24.60
2017-07-04T18:45:30.516Z,24.60
2017-07-04T18:47:56.575Z,24.60
2017-07-04T18:50:22.649Z,24.60
2017-07-04T18:52:48.690Z,24.50
2017-07-04T18:55:14.762Z,24.50
2017-07-04T18:57:40.815Z,24.50
2017-07-04T19:00:06.854Z,24.50
2017-07-04T19:02:32.903Z,24.50
2017-07-04T19:04:58.946Z,24.50
2017-07-04T19:07:25.775Z,24.50
2017-07-04T19:12:48.617Z,24.50
2017-07-04T19:15:14.663Z,24.40
2017-07-04T19:17:40.711Z,24.40
2017-07-04T19:20:21.723Z,24.40
2017-07-04T19:22:47.763Z,24.40
2017-07-04T19:25:13.852Z,24.40
2017-07-04T19:27:40.042Z,24.40
2017-07-04T19:30:06.084Z,24.40
2017-07-04T19:32:32.128Z,24.40
2017-07-04T19:34:58.171Z,24.30
2017-07-04T19:37:24.219Z,24.30
2017-07-04T19:39:50.265Z,24.30
2017-07-04T19:42:16.330Z,24.30
2017-07-04T19:44:42.371Z,24.30
2017-07-04T19:47:08.405Z,24.30
2017-07-04T19:49:34.571Z,24.30
2017-07-04T19:52:00.616Z,24.30
2017-07-04T19:54:26.678Z,24.30
2017-07-04T19:56:52.710Z,24.30
2017-07-04T19:59:18.770Z,24.20
2017-07-04T20:01:44.838Z,24.20
2017-07-04T20:04:10.870Z,24.20
2017-07-04T20:06:36.920Z,24.30
2017-07-04T20:09:03.042Z,24.20
2017-07-04T20:11:29.105Z,24.20
2017-07-04T20:13:55.151Z,24.20
2017-07-04T20:16:21.198Z,24.20
2017-07-04T20:18:47.239Z,24.20
2017-07-04T20:21:28.306Z,24.20
2017-07-04T20:23:54.372Z,24.20
2017-07-04T20:26:20.438Z,24.10
2017-07-04T20:28:46.519Z,24.10
2017-07-04T20:31:12.590Z,24.10
2017-07-04T20:33:38.665Z,24.10
2017-07-04T20:36:04.713Z,24.10
2017-07-04T20:38:30.753Z,24.10
2017-07-04T20:40:56.790Z,24.00
2017-07-04T20:43:23.006Z,24.00
2017-07-04T20:45:49.088Z,24.00
2017-07-04T20:48:15.888Z,24.00
2017-07-04T20:50:41.936Z,24.00
2017-07-04T20:53:08.006Z,24.00
2017-07-04T20:55:34.067Z,24.00
2017-07-04T20:58:15.848Z,23.90
2017-07-04T21:00:41.900Z,23.90
2017-07-04T21:03:07.947Z,24.00
2017-07-04T21:05:34.002Z,23.90
2017-07-04T21:08:00.096Z,23.90
2017-07-04T21:10:26.143Z,23.90
2017-07-04T21:12:52.206Z,23.90
2017-07-04T21:15:18.273Z,23.90
2017-07-04T21:17:44.335Z,23.80
2017-07-04T21:20:10.618Z,23.80
2017-07-04T21:22:36.689Z,23.80
2017-07-04T21:25:02.755Z,23.80
2017-07-04T21:27:28.811Z,23.70
2017-07-04T21:29:55.620Z,23.70
2017-07-04T21:32:21.668Z,23.70
2017-07-04T21:34:47.718Z,23.70
2017-07-04T21:37:13.759Z,23.80
2017-07-04T21:39:39.810Z,23.80
2017-07-04T21:42:06.071Z,23.70
2017-07-04T21:44:32.119Z,23.70
2017-07-04T21:46:58.911Z,23.70
2017-07-04T21:49:24.979Z,23.70
2017-07-04T21:51:51.769Z,23.50
2017-07-04T21:54:17.823Z,23.50
2017-07-04T21:56:43.883Z,23.30
2017-07-04T21:59:10.669Z,23.30
2017-07-04T22:01:36.718Z,23.30
2017-07-04T22:04:03.042Z,23.40
2017-07-04T22:06:29.098Z,23.40
2017-07-04T22:08:55.146Z,23.30
2017-07-04T22:11:21.224Z,23.30
2017-07-04T22:13:47.284Z,23.20
2017-07-04T22:16:13.334Z,23.10
2017-07-04T22:18:39.387Z,23.20
2017-07-04T22:21:05.435Z,23.20
2017-07-04T22:23:31.550Z,23.20
2017-07-04T22:25:57.874Z,23.20
2017-07-04T22:28:23.933Z,23.30
2017-07-04T22:30:49.979Z,23.20
2017-07-04T22:33:16.035Z,23.10
2017-07-04T22:35:42.102Z,23.20
2017-07-04T22:38:08.158Z,23.20
2017-07-04T22:40:34.208Z,23.10
2017-07-04T22:43:00.275Z,23.10
2017-07-04T22:45:26.318Z,23.00
2017-07-04T22:47:52.426Z,23.00
2017-07-04T22:50:18.467Z,23.00
2017-07-04T22:52:44.507Z,22.90
2017-07-04T22:55:10.587Z,22.90
2017-07-04T22:57:36.630Z,22.90
2017-07-04T23:00:02.686Z,22.70
2017-07-04T23:02:28.758Z,22.70
2017-07-04T23:04:54.807Z,22.70
2017-07-04T23:07:20.855Z,22.80
2017-07-04T23:09:46.983Z,22.70
2017-07-04T23:12:13.044Z,22.70
2017-07-04T23:14:39.098Z,22.90
2017-07-04T23:17:05.155Z,22.80
2017-07-04T23:19:31.201Z,22.80
2017-07-04T23:21:57.259Z,22.70
2017-07-04T23:24:23.326Z,22.70
2017-07-04T23:26:49.369Z,22.50
2017-07-04T23:29:15.414Z,22.60
2017-07-04T23:31:42.522Z,22.60
2017-07-04T23:34:08.576Z,22.60
2017-07-04T23:36:34.615Z,22.60
2017-07-04T23:39:00.670Z,22.50
2017-07-04T23:41:26.710Z,22.50
2017-07-04T23:43:53.018Z,22.50
2017-07-04T23:46:19.076Z,22.40
2017-07-04T23:48:45.143Z,22.40
2017-07-04T23:51:11.191Z,22.30
2017-07-04T23:53:38.154Z,22.20
2017-07-04T23:56:04.208Z,22.30
2017-07-04T23:58:30.246Z,22.30
